Time;durP1;ratioP1;P1;durP2;ratioP2;P2;SDS_P1;SDS_P2;PMS_P1;PMS_P2;Temp;Humidity;BMP_temperature;BMP_pressure;BME280_temperature;BME280_humidity;BME280_pressure;Samples;Min_cycle;Max_cycle;Signal;HPM_P1;HPM_P2
2022/12/20 00:00:04;;;;;;;;;;;18.40;58.80;;;;;;4449389;32;19974;-73
2022/12/20 00:02:30;;;;;;;;;;;18.40;58.90;;;;;;4462952;32;19978;-74
2022/12/20 00:04:56;;;;;;;;;;;18.40;58.80;;;;;;4449396;32;20033;-73
2022/12/20 00:07:21;;;;;;;;;;;18.40;58.90;;;;;;4463070;32;19978;-74
2022/12/20 00:09:48;;;;;;;;;;;18.40;58.80;;;;;;4462946;32;20024;-73
2022/12/20 00:12:14;;;;;;;;;;;18.40;58.90;;;;;;4463012;32;20392;-73
2022/12/20 00:14:39;;;;;;;;;;;18.30;58.80;;;;;;4462947;32;20085;-73
2022/12/20 00:17:06;;;;;;;;;;;18.30;58.80;;;;;;4462679;32;19998;-73
2022/12/20 00:19:32;;;;;;;;;;;18.30;58.80;;;;;;4462838;32;20052;-73
2022/12/20 00:22:00;;;;;;;;;;;18.30;58.90;;;;;;4463160;32;20315;-73
2022/12/20 00:24:26;;;;;;;;;;;18.30;58.90;;;;;;4463083;32;20006;-73
2022/12/20 00:26:51;;;;;;;;;;;18.30;58.90;;;;;;4448589;32;20521;-73
2022/12/20 00:29:21;;;;;;;;;;;18.30;58.90;;;;;;4462971;32;20332;-74
2022/12/20 00:31:51;;;;;;;;;;;18.30;58.80;;;;;;4462573;32;19970;-73
2022/12/20 00:34:16;;;;;;;;;;;18.30;58.90;;;;;;4462931;32;19974;-74
2022/12/20 00:36:48;;;;;;;;;;;18.20;58.80;;;;;;4462741;32;20004;-73
2022/12/20 00:39:14;;;;;;;;;;;18.20;58.80;;;;;;4462838;32;20439;-73
2022/12/20 00:41:40;;;;;;;;;;;18.20;58.80;;;;;;4462623;32;20167;-74
2022/12/20 00:44:06;;;;;;;;;;;18.20;58.90;;;;;;4462585;32;20040;-73
2022/12/20 00:46:33;;;;;;;;;;;18.20;58.80;;;;;;4462555;32;20024;-73
2022/12/20 00:48:59;;;;;;;;;;;18.20;59.70;;;;;;4461888;32;20435;-73
2022/12/20 00:51:28;;;;;;;;;;;18.20;58.80;;;;;;4462875;32;19974;-74
2022/12/20 00:53:55;;;;;;;;;;;18.20;58.90;;;;;;4462353;32;19982;-73
2022/12/20 00:56:22;;;;;;;;;;;18.20;58.90;;;;;;4462543;32;19993;-74
2022/12/20 00:58:48;;;;;;;;;;;18.20;58.80;;;;;;4462298;32;20010;-73
2022/12/20 01:01:22;;;;;;;;;;;18.20;58.90;;;;;;4462519;32;19974;-73
2022/12/20 01:03:48;;;;;;;;;;;18.10;58.80;;;;;;4461983;32;20012;-73
2022/12/20 01:06:15;;;;;;;;;;;18.10;58.80;;;;;;4462086;32;20219;-74
2022/12/20 01:08:40;;;;;;;;;;;18.10;58.90;;;;;;4462391;32;19970;-73
2022/12/20 01:11:11;;;;;;;;;;;18.10;58.90;;;;;;4462060;32;20036;-74
2022/12/20 01:13:38;;;;;;;;;;;18.10;58.90;;;;;;4462344;32;20388;-73
2022/12/20 01:16:05;;;;;;;;;;;18.10;58.90;;;;;;4462000;32;20108;-74
2022/12/20 01:18:31;;;;;;;;;;;18.10;58.90;;;;;;4461755;32;19989;-74
2022/12/20 01:21:04;;;;;;;;;;;18.10;58.90;;;;;;4461914;32;19974;-74
2022/12/20 01:23:32;;;;;;;;;;;18.00;58.90;;;;;;4461847;32;19986;-74
2022/12/20 01:25:58;;;;;;;;;;;18.10;58.90;;;;;;4462031;32;20041;-73
2022/12/20 01:28:24;;;;;;;;;;;18.00;58.80;;;;;;4461915;32;19966;-73
2022/12/20 01:30:50;;;;;;;;;;;18.00;58.90;;;;;;4461994;32;20016;-73
2022/12/20 01:33:16;;;;;;;;;;;18.00;58.80;;;;;;4447867;32;20092;-73
2022/12/20 01:35:41;;;;;;;;;;;18.00;58.80;;;;;;4447947;32;20097;-73
2022/12/20 01:38:07;;;;;;;;;;;18.00;58.80;;;;;;4461943;32;20443;-73
2022/12/20 01:40:33;;;;;;;;;;;18.00;58.80;;;;;;4437063;32;20033;-73
2022/12/20 01:42:59;;;;;;;;;;;18.00;58.90;;;;;;4447840;32;20386;-73
2022/12/20 01:45:29;;;;;;;;;;;18.00;58.90;;;;;;4461490;32;20378;-73
2022/12/20 01:47:56;;;;;;;;;;;18.00;58.80;;;;;;4461439;32;19978;-74
2022/12/20 01:50:22;;;;;;;;;;;18.00;58.80;;;;;;4461339;32;19974;-73
2022/12/20 01:52:53;;;;;;;;;;;18.00;58.90;;;;;;4461659;32;19989;-73
2022/12/20 01:55:23;;;;;;;;;;;18.00;58.90;;;;;;4461543;32;19974;-73
2022/12/20 01:57:50;;;;;;;;;;;17.90;58.90;;;;;;4461669;32;19974;-73
2022/12/20 02:00:16;;;;;;;;;;;18.00;58.90;;;;;;4461307;32;20014;-74
2022/12/20 02:02:44;;;;;;;;;;;17.90;58.90;;;;;;4461253;32;19982;-73
2022/12/20 02:05:15;;;;;;;;;;;18.00;58.90;;;;;;4461693;32;19975;-73
2022/12/20 02:07:42;;;;;;;;;;;17.90;58.80;;;;;;4461165;32;20012;-73
2022/12/20 02:10:10;;;;;;;;;;;17.90;58.90;;;;;;4461456;32;20044;-73
2022/12/20 02:12:43;;;;;;;;;;;17.90;58.90;;;;;;4461235;32;20019;-74
2022/12/20 02:15:27;;;;;;;;;;;17.90;58.90;;;;;;4460640;32;20025;-73
2022/12/20 02:17:56;;;;;;;;;;;17.90;58.90;;;;;;4460785;32;20041;-73
2022/12/20 02:20:31;;;;;;;;;;;17.90;58.90;;;;;;4461236;32;19963;-73
2022/12/20 02:22:57;;;;;;;;;;;17.90;58.90;;;;;;4461021;32;20056;-73
2022/12/20 02:25:35;;;;;;;;;;;17.90;58.90;;;;;;4461288;32;19978;-74
2022/12/20 02:28:25;;;;;;;;;;;17.90;58.90;;;;;;4460946;32;20064;-73
2022/12/20 02:30:53;;;;;;;;;;;17.90;58.90;;;;;;4461175;32;20328;-73
2022/12/20 02:33:20;;;;;;;;;;;17.80;58.80;;;;;;4460871;32;19981;-73
2022/12/20 02:35:48;;;;;;;;;;;17.90;58.90;;;;;;4460868;32;20060;-74
2022/12/20 02:38:25;;;;;;;;;;;17.80;58.90;;;;;;4459669;32;20108;-74
2022/12/20 02:40:53;;;;;;;;;;;17.80;58.90;;;;;;4460673;32;20499;-73
2022/12/20 02:46:06;;;;;;;;;;;17.80;58.90;;;;;;4460741;32;20052;-73
2022/12/20 02:48:33;;;;;;;;;;;17.80;58.90;;;;;;4460509;32;20446;-74
2022/12/20 02:51:01;;;;;;;;;;;17.80;58.90;;;;;;4460864;32;19994;-73
2022/12/20 02:53:28;;;;;;;;;;;17.80;58.90;;;;;;4460702;32;20029;-73
2022/12/20 02:56:09;;;;;;;;;;;17.80;58.80;;;;;;4460815;32;20084;-73
2022/12/20 02:58:42;;;;;;;;;;;17.80;58.90;;;;;;4460672;32;19982;-73
2022/12/20 03:01:10;;;;;;;;;;;17.80;58.90;;;;;;4460701;32;19992;-73
2022/12/20 03:03:36;;;;;;;;;;;17.80;58.90;;;;;;4460802;32;20055;-73
2022/12/20 03:06:02;;;;;;;;;;;17.80;58.90;;;;;;4460667;32;19978;-73
2022/12/20 03:08:28;;;;;;;;;;;17.80;58.90;;;;;;4460907;32;19967;-75
2022/12/20 03:10:54;;;;;;;;;;;17.70;58.90;;;;;;4460448;32;19970;-73
2022/12/20 03:13:22;;;;;;;;;;;17.70;58.90;;;;;;4460875;32;19990;-73
2022/12/20 03:15:47;;;;;;;;;;;17.70;58.90;;;;;;4460421;32;19990;-73
2022/12/20 03:18:13;;;;;;;;;;;17.70;58.90;;;;;;4460462;32;20024;-73
2022/12/20 03:20:39;;;;;;;;;;;17.70;58.90;;;;;;4460571;32;19962;-73
2022/12/20 03:23:05;;;;;;;;;;;17.70;58.90;;;;;;4460411;32;20060;-73
2022/12/20 03:25:31;;;;;;;;;;;17.70;58.90;;;;;;4460657;32;19981;-74
2022/12/20 03:27:57;;;;;;;;;;;17.70;58.90;;;;;;4463143;32;20041;-73
2022/12/20 03:30:22;;;;;;;;;;;17.70;58.90;;;;;;4463477;32;19990;-73
2022/12/20 03:32:48;;;;;;;;;;;17.70;58.90;;;;;;4463490;32;20442;-73
2022/12/20 03:35:14;;;;;;;;;;;17.70;58.90;;;;;;4463926;32;20410;-73
2022/12/20 03:37:40;;;;;;;;;;;17.60;58.90;;;;;;4463574;32;19962;-73
2022/12/20 03:40:08;;;;;;;;;;;17.70;59.00;;;;;;4463575;32;20072;-73
2022/12/20 03:42:33;;;;;;;;;;;17.70;58.90;;;;;;4463532;32;19982;-73
2022/12/20 03:44:59;;;;;;;;;;;17.70;59.00;;;;;;4463156;32;20375;-73
2022/12/20 03:47:25;;;;;;;;;;;17.70;59.00;;;;;;4463205;32;20009;-73
2022/12/20 03:49:51;;;;;;;;;;;17.60;58.90;;;;;;4463053;32;20559;-73
2022/12/20 03:52:17;;;;;;;;;;;17.60;58.90;;;;;;4463304;32;20006;-73
2022/12/20 03:54:43;;;;;;;;;;;17.60;58.90;;;;;;4463494;32;20099;-73
2022/12/20 03:57:09;;;;;;;;;;;17.60;58.90;;;;;;4463105;32;19974;-73
2022/12/20 03:59:34;;;;;;;;;;;17.60;59.00;;;;;;4463330;32;20092;-73
2022/12/20 04:02:01;;;;;;;;;;;17.60;58.90;;;;;;4463038;32;19962;-73
2022/12/20 04:04:29;;;;;;;;;;;17.60;59.00;;;;;;4463389;32;20007;-73
2022/12/20 04:06:55;;;;;;;;;;;17.60;59.00;;;;;;4462995;32;19978;-74
2022/12/20 04:09:20;;;;;;;;;;;17.60;59.00;;;;;;4463361;32;19974;-73
2022/12/20 04:11:46;;;;;;;;;;;17.60;59.00;;;;;;4463157;32;20014;-73
2022/12/20 04:14:13;;;;;;;;;;;17.60;58.90;;;;;;4462843;32;19988;-73
2022/12/20 04:16:39;;;;;;;;;;;17.60;59.00;;;;;;4463066;32;19974;-73
2022/12/20 04:19:05;;;;;;;;;;;17.60;59.00;;;;;;4462483;32;20068;-73
2022/12/20 04:21:31;;;;;;;;;;;17.60;59.00;;;;;;4463134;32;19985;-73
2022/12/20 04:23:58;;;;;;;;;;;17.60;59.10;;;;;;4462824;32;20498;-73
2022/12/20 04:26:24;;;;;;;;;;;17.50;59.00;;;;;;4462832;32;20009;-73
2022/12/20 04:28:50;;;;;;;;;;;17.50;59.00;;;;;;4462862;32;19986;-74
2022/12/20 04:31:17;;;;;;;;;;;17.50;58.90;;;;;;4463058;32;20001;-73
2022/12/20 04:33:44;;;;;;;;;;;17.50;58.90;;;;;;4462934;32;19974;-72
2022/12/20 04:36:10;;;;;;;;;;;17.50;59.00;;;;;;4462607;32;20110;-73
2022/12/20 04:38:35;;;;;;;;;;;17.50;59.00;;;;;;4462016;32;20001;-73
2022/12/20 04:41:01;;;;;;;;;;;17.50;59.00;;;;;;4462575;32;20006;-73
2022/12/20 04:43:27;;;;;;;;;;;17.50;59.00;;;;;;4462873;32;20018;-73
2022/12/20 04:45:57;;;;;;;;;;;17.50;59.00;;;;;;4459468;32;20036;-73
2022/12/20 04:48:25;;;;;;;;;;;17.50;59.00;;;;;;4448141;32;19958;-73
2022/12/20 04:50:52;;;;;;;;;;;17.50;59.00;;;;;;4462397;32;19974;-73
2022/12/20 04:56:03;;;;;;;;;;;17.50;59.10;;;;;;4462716;32;20009;-73
2022/12/20 04:58:29;;;;;;;;;;;17.50;59.10;;;;;;4462380;32;20410;-74
2022/12/20 05:00:55;;;;;;;;;;;17.50;59.10;;;;;;4462682;32;19984;-73
2022/12/20 05:03:22;;;;;;;;;;;17.50;59.10;;;;;;4462201;32;19970;-73
2022/12/20 05:05:48;;;;;;;;;;;17.50;59.10;;;;;;4462363;32;19998;-73
2022/12/20 05:08:14;;;;;;;;;;;17.40;59.10;;;;;;4462350;32;19977;-73
2022/12/20 05:10:40;;;;;;;;;;;17.40;59.10;;;;;;4462184;32;19962;-73
2022/12/20 05:13:05;;;;;;;;;;;17.40;59.10;;;;;;4462445;32;20088;-73
2022/12/20 05:15:33;;;;;;;;;;;17.40;59.10;;;;;;4462045;32;19994;-74
2022/12/20 05:17:59;;;;;;;;;;;17.40;59.10;;;;;;4462079;32;20148;-73
2022/12/20 05:20:25;;;;;;;;;;;17.40;59.10;;;;;;4461998;32;19998;-73
2022/12/20 05:26:19;;;;;;;;;;;17.40;59.10;;;;;;4462053;32;20116;-73
2022/12/20 05:28:27;;;;;;;;;;;17.40;59.10;;;;;;4446656;32;20029;-73
2022/12/20 05:30:53;;;;;;;;;;;17.40;59.10;;;;;;4461857;32;20001;-73
2022/12/20 05:33:19;;;;;;;;;;;17.40;59.10;;;;;;4461747;32;20411;-73
2022/12/20 05:36:04;;;;;;;;;;;17.40;59.10;;;;;;4449990;32;20440;-75
2022/12/20 05:38:50;;;;;;;;;;;17.40;59.10;;;;;;4450316;32;19990;-73
2022/12/20 05:41:36;;;;;;;;;;;17.40;59.10;;;;;;4449963;32;19982;-73
2022/12/20 05:44:22;;;;;;;;;;;17.40;59.10;;;;;;4449933;32;20400;-73
2022/12/20 05:47:07;;;;;;;;;;;17.40;59.10;;;;;;4439720;32;20033;-73
2022/12/20 05:49:33;;;;;;;;;;;17.40;59.10;;;;;;4461113;32;19963;-73
2022/12/20 05:52:04;;;;;;;;;;;17.40;59.00;;;;;;4461425;32;19970;-73
2022/12/20 05:54:30;;;;;;;;;;;17.40;59.00;;;;;;4461660;32;20040;-73
2022/12/20 05:56:56;;;;;;;;;;;17.40;58.90;;;;;;4461350;32;20112;-73
2022/12/20 05:59:23;;;;;;;;;;;17.50;58.90;;;;;;4461483;32;19962;-73
2022/12/20 06:01:49;;;;;;;;;;;17.50;58.70;;;;;;4461363;32;19970;-73
2022/12/20 06:04:15;;;;;;;;;;;17.50;58.80;;;;;;4447435;32;20038;-74
2022/12/20 06:06:40;;;;;;;;;;;17.50;58.60;;;;;;4447395;32;19970;-73
2022/12/20 06:09:06;;;;;;;;;;;17.50;58.70;;;;;;4461205;32;19986;-73
2022/12/20 06:11:32;;;;;;;;;;;17.50;58.60;;;;;;4461420;32;20320;-74
2022/12/20 06:14:03;;;;;;;;;;;17.60;58.60;;;;;;4461203;32;19989;-73
2022/12/20 06:16:41;;;;;;;;;;;17.60;58.70;;;;;;4461237;32;20064;-73
2022/12/20 06:19:07;;;;;;;;;;;17.60;58.60;;;;;;4460872;32;20211;-74
2022/12/20 06:21:33;;;;;;;;;;;17.60;59.00;;;;;;4461263;32;20075;-75
2022/12/20 06:24:00;;;;;;;;;;;17.60;59.10;;;;;;4461206;32;19962;-74
2022/12/20 06:26:26;;;;;;;;;;;17.60;59.50;;;;;;4461154;32;20100;-74
2022/12/20 06:28:53;;;;;;;;;;;17.60;59.90;;;;;;4461042;32;19985;-74
2022/12/20 06:31:19;;;;;;;;;;;17.70;59.00;;;;;;4461060;32;20108;-75
2022/12/20 06:33:45;;;;;;;;;;;17.80;58.80;;;;;;4447023;32;19970;-75
2022/12/20 06:36:10;;;;;;;;;;;17.90;58.50;;;;;;4460876;32;20411;-75
2022/12/20 06:38:36;;;;;;;;;;;18.00;58.30;;;;;;4461052;32;19978;-75
2022/12/20 06:41:02;;;;;;;;;;;18.20;58.10;;;;;;4460911;32;20013;-74
2022/12/20 06:43:39;;;;;;;;;;;18.30;57.80;;;;;;4461047;32;19998;-76
2022/12/20 06:46:05;;;;;;;;;;;18.50;57.70;;;;;;4460803;32;20330;-75
2022/12/20 06:48:31;;;;;;;;;;;18.60;57.30;;;;;;4460334;32;19974;-76
2022/12/20 06:50:57;;;;;;;;;;;18.70;57.40;;;;;;4460796;32;19978;-76
2022/12/20 06:53:23;;;;;;;;;;;18.70;57.50;;;;;;4446766;32;19986;-76
2022/12/20 06:55:52;;;;;;;;;;;18.80;57.50;;;;;;4460841;32;19978;-75
2022/12/20 06:58:18;;;;;;;;;;;18.80;57.60;;;;;;4460728;32;20048;-75
2022/12/20 07:00:44;;;;;;;;;;;18.80;57.60;;;;;;4460642;32;19986;-74
2022/12/20 07:03:10;;;;;;;;;;;18.80;57.70;;;;;;4460653;32;20269;-79
2022/12/20 07:05:36;;;;;;;;;;;18.80;57.80;;;;;;4460616;32;20104;-77
2022/12/20 07:08:03;;;;;;;;;;;18.80;57.80;;;;;;4460679;32;20100;-75
2022/12/20 07:10:29;;;;;;;;;;;18.80;57.80;;;;;;4460466;32;19997;-77
2022/12/20 07:13:08;;;;;;;;;;;18.80;57.80;;;;;;4460956;32;19998;-77
2022/12/20 07:15:34;;;;;;;;;;;18.80;57.80;;;;;;4460415;32;19974;-77
2022/12/20 07:18:02;;;;;;;;;;;18.80;57.70;;;;;;4460613;32;19990;-75
2022/12/20 07:20:28;;;;;;;;;;;18.90;57.90;;;;;;4460600;32;20378;-75
2022/12/20 07:22:55;;;;;;;;;;;18.90;58.00;;;;;;4460951;32;19982;-73
2022/12/20 07:25:21;;;;;;;;;;;18.90;58.00;;;;;;4460788;32;19973;-75
2022/12/20 07:27:48;;;;;;;;;;;18.90;58.10;;;;;;4460569;32;19966;-74
2022/12/20 07:30:15;;;;;;;;;;;18.90;58.10;;;;;;4460614;32;19997;-75
2022/12/20 07:32:41;;;;;;;;;;;18.90;58.00;;;;;;4446352;32;20015;-73
2022/12/20 07:35:09;;;;;;;;;;;18.80;58.10;;;;;;4460660;32;20411;-76
2022/12/20 07:37:35;;;;;;;;;;;18.90;57.90;;;;;;4460323;32;19966;-75
2022/12/20 07:40:09;;;;;;;;;;;18.90;58.00;;;;;;4460698;32;20120;-74
2022/12/20 07:42:35;;;;;;;;;;;18.90;57.90;;;;;;4460349;32;20056;-74
2022/12/20 07:45:01;;;;;;;;;;;19.00;57.90;;;;;;4460369;32;19982;-74
2022/12/20 07:47:27;;;;;;;;;;;19.00;58.00;;;;;;4460138;32;20057;-77
2022/12/20 07:49:54;;;;;;;;;;;19.00;58.00;;;;;;4460092;32;20053;-72
2022/12/20 07:52:21;;;;;;;;;;;19.00;58.00;;;;;;4460335;32;19997;-72
2022/12/20 07:54:49;;;;;;;;;;;19.00;58.10;;;;;;4460401;32;20010;-77
2022/12/20 07:57:24;;;;;;;;;;;19.10;59.10;;;;;;4460469;32;20510;-73
2022/12/20 07:59:51;;;;;;;;;;;19.10;58.20;;;;;;4460293;32;19970;-78
2022/12/20 08:02:20;;;;;;;;;;;19.10;58.20;;;;;;4443918;32;20103;-76
2022/12/20 08:04:49;;;;;;;;;;;19.10;58.20;;;;;;4455584;32;19994;-72
2022/12/20 08:07:16;;;;;;;;;;;19.10;58.30;;;;;;4459283;32;19959;-73
2022/12/20 08:09:43;;;;;;;;;;;19.10;58.30;;;;;;4458183;32;20054;-74
2022/12/20 08:12:12;;;;;;;;;;;19.10;58.50;;;;;;4445069;32;19978;-74
2022/12/20 08:14:38;;;;;;;;;;;19.10;58.50;;;;;;4460466;32;20313;-73
2022/12/20 08:17:04;;;;;;;;;;;19.10;58.60;;;;;;4462144;32;20426;-74
2022/12/20 08:19:43;;;;;;;;;;;19.10;58.60;;;;;;4460965;32;20088;-75
2022/12/20 08:22:09;;;;;;;;;;;19.00;58.70;;;;;;4462023;32;20039;-73
2022/12/20 08:24:34;;;;;;;;;;;19.00;59.00;;;;;;4458076;32;20001;-78
2022/12/20 08:27:00;;;;;;;;;;;19.00;58.80;;;;;;4460985;32;20335;-78
2022/12/20 08:29:29;;;;;;;;;;;19.00;59.20;;;;;;4461919;32;20346;-76
2022/12/20 08:31:55;;;;;;;;;;;19.00;59.10;;;;;;4460943;32;19974;-69
2022/12/20 08:34:20;;;;;;;;;;;18.90;59.30;;;;;;4461844;32;19978;-78
2022/12/20 08:36:46;;;;;;;;;;;18.90;59.20;;;;;;4459788;32;20044;-73
2022/12/20 08:39:12;;;;;;;;;;;18.90;59.30;;;;;;4461821;32;20396;-74
2022/12/20 08:41:38;;;;;;;;;;;18.90;59.50;;;;;;4461797;32;20561;-75
2022/12/20 08:44:11;;;;;;;;;;;18.90;59.40;;;;;;4461815;32;20132;-75
2022/12/20 08:46:37;;;;;;;;;;;18.90;59.70;;;;;;4459484;32;20155;-74
2022/12/20 08:49:05;;;;;;;;;;;18.90;59.70;;;;;;4453381;32;19982;-75
2022/12/20 08:51:35;;;;;;;;;;;18.80;59.70;;;;;;4448628;32;20064;-75
2022/12/20 08:54:01;;;;;;;;;;;18.80;59.80;;;;;;4446659;32;20084;-74
2022/12/20 08:56:27;;;;;;;;;;;18.80;60.60;;;;;;4446215;32;20007;-75
2022/12/20 08:58:53;;;;;;;;;;;18.80;59.90;;;;;;4457278;32;20001;-76
2022/12/20 09:01:20;;;;;;;;;;;18.80;59.90;;;;;;4446526;32;20438;-76
2022/12/20 09:03:46;;;;;;;;;;;18.80;59.90;;;;;;4448431;32;20343;-75
2022/12/20 09:06:14;;;;;;;;;;;18.70;60.00;;;;;;4458206;32;20407;-74
2022/12/20 09:08:40;;;;;;;;;;;18.80;60.40;;;;;;4458800;32;19978;-74
2022/12/20 09:11:07;;;;;;;;;;;18.80;59.90;;;;;;4462186;32;19959;-74
2022/12/20 09:13:33;;;;;;;;;;;18.80;59.80;;;;;;4461801;32;20084;-76
2022/12/20 09:16:03;;;;;;;;;;;18.80;59.90;;;;;;4462117;32;20104;-75
2022/12/20 09:18:29;;;;;;;;;;;18.90;60.00;;;;;;4461552;32;19974;-74
2022/12/20 09:21:03;;;;;;;;;;;18.90;60.00;;;;;;4461562;32;20005;-75
2022/12/20 09:23:30;;;;;;;;;;;18.90;60.00;;;;;;4461621;32;19993;-74
2022/12/20 09:26:00;;;;;;;;;;;18.90;60.00;;;;;;4461258;32;20125;-74
2022/12/20 09:28:26;;;;;;;;;;;18.90;60.00;;;;;;4461700;32;19985;-74
2022/12/20 09:31:00;;;;;;;;;;;18.90;60.00;;;;;;4461416;32;20410;-75
2022/12/20 09:33:27;;;;;;;;;;;18.90;60.10;;;;;;4461462;32;20060;-73
2022/12/20 09:35:53;;;;;;;;;;;18.90;60.20;;;;;;4448953;32;19974;-75
2022/12/20 09:38:23;;;;;;;;;;;18.90;60.20;;;;;;4460467;32;20267;-75
2022/12/20 09:40:50;;;;;;;;;;;18.90;60.30;;;;;;4459709;32;19982;-75
2022/12/20 09:43:16;;;;;;;;;;;19.00;60.60;;;;;;4459520;32;19975;-76
2022/12/20 09:45:44;;;;;;;;;;;19.10;60.40;;;;;;4460010;32;20436;-75
2022/12/20 09:48:15;;;;;;;;;;;19.20;59.70;;;;;;4460760;32;20056;-75
2022/12/20 09:50:59;;;;;;;;;;;19.40;59.40;;;;;;4460912;32;20080;-76
2022/12/20 09:53:25;;;;;;;;;;;19.70;58.80;;;;;;4461170;32;19982;-76
2022/12/20 09:55:58;;;;;;;;;;;19.80;58.40;;;;;;4460815;32;20000;-78
2022/12/20 09:58:44;;;;;;;;;;;19.80;58.40;;;;;;4461232;32;20092;-77
2022/12/20 10:01:14;;;;;;;;;;;19.80;58.40;;;;;;4461451;32;19974;-76
2022/12/20 10:03:39;;;;;;;;;;;19.70;58.50;;;;;;4460144;32;20057;-76
2022/12/20 10:06:25;;;;;;;;;;;19.60;58.60;;;;;;4461172;32;19985;-76
2022/12/20 10:08:57;;;;;;;;;;;19.50;58.90;;;;;;4460624;32;20076;-76
2022/12/20 10:11:43;;;;;;;;;;;19.40;59.10;;;;;;4461160;32;20064;-75
2022/12/20 10:14:28;;;;;;;;;;;19.40;59.30;;;;;;4446382;32;19997;-75
2022/12/20 10:17:17;;;;;;;;;;;19.30;59.30;;;;;;4446838;32;20139;-78
2022/12/20 10:20:01;;;;;;;;;;;19.30;59.40;;;;;;4431180;32;19986;-78
2022/12/20 10:22:36;;;;;;;;;;;19.40;59.50;;;;;;4444323;32;20051;-76
2022/12/20 10:25:15;;;;;;;;;;;19.40;59.40;;;;;;4455852;32;19974;-78
2022/12/20 10:27:42;;;;;;;;;;;19.50;59.20;;;;;;4452306;32;19991;-77
2022/12/20 10:30:15;;;;;;;;;;;19.60;59.10;;;;;;4454235;32;20042;-76
2022/12/20 10:32:46;;;;;;;;;;;19.70;58.90;;;;;;4453019;32;20065;-77
2022/12/20 10:35:11;;;;;;;;;;;19.80;58.70;;;;;;4454927;32;19978;-78
2022/12/20 10:37:37;;;;;;;;;;;19.90;58.50;;;;;;4453799;32;19985;-78
2022/12/20 10:40:04;;;;;;;;;;;20.10;58.40;;;;;;4437875;32;24159;-78
2022/12/20 10:42:37;;;;;;;;;;;20.10;58.20;;;;;;4455813;32;20090;-77
2022/12/20 10:45:09;;;;;;;;;;;20.20;58.00;;;;;;4454248;32;19970;-78
2022/12/20 10:47:37;;;;;;;;;;;20.20;57.90;;;;;;4460829;32;19985;-78
2022/12/20 10:50:13;;;;;;;;;;;20.20;57.80;;;;;;4459911;32;19970;-77
2022/12/20 10:52:39;;;;;;;;;;;20.20;57.70;;;;;;4460323;32;20100;-78
2022/12/20 10:55:25;;;;;;;;;;;20.30;57.70;;;;;;4459239;32;20012;-78
2022/12/20 10:57:51;;;;;;;;;;;20.30;57.70;;;;;;4460089;32;20392;-78
2022/12/20 11:00:28;;;;;;;;;;;20.30;57.60;;;;;;4460537;32;19994;-78
2022/12/20 11:03:28;;;;;;;;;;;20.30;57.60;;;;;;4460339;32;20032;-79
2022/12/20 11:05:58;;;;;;;;;;;20.30;57.60;;;;;;4433762;32;20175;-80
2022/12/20 11:08:26;;;;;;;;;;;20.30;57.60;;;;;;4460002;32;20399;-79
2022/12/20 11:11:11;;;;;;;;;;;20.30;57.50;;;;;;4442449;32;19974;-79
2022/12/20 11:13:37;;;;;;;;;;;20.30;57.50;;;;;;4456050;32;19980;-78
2022/12/20 11:16:03;;;;;;;;;;;20.40;57.50;;;;;;4458065;32;19985;-78
2022/12/20 11:18:35;;;;;;;;;;;20.40;57.40;;;;;;4458333;32;20001;-77
2022/12/20 11:21:03;;;;;;;;;;;20.40;57.40;;;;;;4458457;32;20418;-78
2022/12/20 11:23:35;;;;;;;;;;;20.40;57.40;;;;;;4458814;32;20104;-78
2022/12/20 11:26:08;;;;;;;;;;;20.40;57.40;;;;;;4458368;32;19985;-78
2022/12/20 11:28:37;;;;;;;;;;;20.40;57.40;;;;;;4458422;32;19974;-78
2022/12/20 11:31:19;;;;;;;;;;;20.40;57.50;;;;;;4457689;32;20080;-79
2022/12/20 11:33:44;;;;;;;;;;;20.40;57.50;;;;;;4459252;32;19985;-79
2022/12/20 11:36:10;;;;;;;;;;;20.40;57.40;;;;;;4458383;32;19982;-78
2022/12/20 11:38:39;;;;;;;;;;;20.50;57.50;;;;;;4458530;32;20036;-78
2022/12/20 11:41:05;;;;;;;;;;;20.50;57.50;;;;;;4458210;32;21367;-78
2022/12/20 11:43:49;;;;;;;;;;;20.50;57.40;;;;;;4458618;32;19979;-78
2022/12/20 11:46:38;;;;;;;;;;;20.50;57.40;;;;;;4458436;32;19992;-78
2022/12/20 11:49:20;;;;;;;;;;;20.50;57.30;;;;;;4431572;32;19990;-77
2022/12/20 11:51:58;;;;;;;;;;;20.50;57.30;;;;;;4461741;32;20267;-77
2022/12/20 11:54:31;;;;;;;;;;;20.50;57.30;;;;;;4462250;32;20007;-78
2022/12/20 11:57:03;;;;;;;;;;;20.50;57.30;;;;;;4460856;32;20380;-78
2022/12/20 11:59:32;;;;;;;;;;;20.50;57.30;;;;;;4461675;32;20104;-76
2022/12/20 12:01:57;;;;;;;;;;;20.50;57.30;;;;;;4460869;32;20038;-77
2022/12/20 12:04:29;;;;;;;;;;;20.50;57.40;;;;;;4461805;32;20054;-77
2022/12/20 12:07:10;;;;;;;;;;;20.50;57.40;;;;;;4460806;32;19981;-76
2022/12/20 12:09:38;;;;;;;;;;;20.50;57.50;;;;;;4435212;32;20424;-76
2022/12/20 12:12:13;;;;;;;;;;;20.50;57.50;;;;;;4459872;32;20104;-76
2022/12/20 12:14:46;;;;;;;;;;;20.50;57.60;;;;;;4446895;32;19993;-76
2022/12/20 12:17:16;;;;;;;;;;;20.50;57.60;;;;;;4447217;32;19994;-76
2022/12/20 12:19:45;;;;;;;;;;;20.50;57.50;;;;;;4460436;32;20092;-76
2022/12/20 12:22:16;;;;;;;;;;;20.50;58.50;;;;;;4460025;32;20005;-76
2022/12/20 12:24:48;;;;;;;;;;;20.50;57.60;;;;;;4461297;32;20396;-77
2022/12/20 12:27:22;;;;;;;;;;;20.50;57.50;;;;;;4460264;32;20498;-76
2022/12/20 12:29:48;;;;;;;;;;;20.50;57.50;;;;;;4460330;32;20081;-76
2022/12/20 12:32:14;;;;;;;;;;;20.50;57.50;;;;;;4460707;32;20328;-76
2022/12/20 12:34:50;;;;;;;;;;;20.50;57.50;;;;;;4447983;32;19978;-81
2022/12/20 12:37:35;;;;;;;;;;;20.50;57.60;;;;;;4448368;32;20404;-77
2022/12/20 12:40:09;;;;;;;;;;;20.50;57.60;;;;;;4456498;32;19971;-86
2022/12/20 12:42:47;;;;;;;;;;;20.50;57.60;;;;;;4448471;32;19982;-74
2022/12/20 12:45:25;;;;;;;;;;;20.50;57.70;;;;;;4451352;32;20124;-73
2022/12/20 12:48:20;;;;;;;;;;;20.50;58.70;;;;;;4448424;32;20033;-74
2022/12/20 12:50:48;;;;;;;;;;;20.60;57.80;;;;;;4406698;32;19979;-74
2022/12/20 12:53:16;;;;;;;;;;;20.60;57.80;;;;;;4462399;32;19978;-75
2022/12/20 12:55:44;;;;;;;;;;;20.60;57.80;;;;;;4462433;32;19985;-73
2022/12/20 12:58:19;;;;;;;;;;;20.60;57.80;;;;;;4448581;32;20422;-73
2022/12/20 13:00:55;;;;;;;;;;;20.60;57.90;;;;;;4451801;32;20390;-75
2022/12/20 13:03:38;;;;;;;;;;;20.60;57.90;;;;;;4462205;32;19970;-73
2022/12/20 13:06:22;;;;;;;;;;;20.60;58.00;;;;;;4447523;32;19978;-74
2022/12/20 13:09:08;;;;;;;;;;;20.60;58.00;;;;;;4462201;32;20408;-73
2022/12/20 13:11:38;;;;;;;;;;;20.60;58.00;;;;;;4462425;32;19990;-73
2022/12/20 13:14:13;;;;;;;;;;;20.60;58.00;;;;;;4462126;32;19974;-73
2022/12/20 13:16:40;;;;;;;;;;;20.60;58.00;;;;;;4448142;32;20211;-73
2022/12/20 13:19:29;;;;;;;;;;;20.60;58.00;;;;;;4461800;32;19982;-73
2022/12/20 13:21:55;;;;;;;;;;;20.60;58.00;;;;;;4455865;32;19974;-73
2022/12/20 13:24:45;;;;;;;;;;;20.60;58.10;;;;;;4429480;32;20049;-73
2022/12/20 13:27:26;;;;;;;;;;;20.60;58.10;;;;;;4446374;32;20225;-73
2022/12/20 13:30:17;;;;;;;;;;;20.60;58.10;;;;;;4446120;32;20471;-74
2022/12/20 13:32:46;;;;;;;;;;;20.60;58.10;;;;;;4446261;32;19982;-74
2022/12/20 13:35:43;;;;;;;;;;;20.60;58.10;;;;;;4434638;32;19998;-72
2022/12/20 13:38:38;;;;;;;;;;;20.60;58.10;;;;;;4434174;32;20502;-72
2022/12/20 13:41:37;;;;;;;;;;;20.60;58.10;;;;;;4432958;32;20124;-72
2022/12/20 13:44:08;;;;;;;;;;;20.60;58.10;;;;;;4445331;32;19985;-72
2022/12/20 13:46:36;;;;;;;;;;;20.60;59.10;;;;;;4458260;32;20387;-73
2022/12/20 13:49:10;;;;;;;;;;;20.60;58.10;;;;;;4459523;32;20139;-73
2022/12/20 13:51:36;;;;;;;;;;;20.60;58.10;;;;;;4458440;32;19986;-74
2022/12/20 13:54:04;;;;;;;;;;;20.60;58.10;;;;;;4459862;32;20045;-73
2022/12/20 13:56:41;;;;;;;;;;;20.70;58.10;;;;;;4460026;32;20414;-74
2022/12/20 13:59:14;;;;;;;;;;;20.70;58.10;;;;;;4446439;32;19982;-73
2022/12/20 14:01:50;;;;;;;;;;;20.70;58.10;;;;;;4458635;32;19978;-73
2022/12/20 14:04:17;;;;;;;;;;;20.70;58.00;;;;;;4458269;32;20022;-72
2022/12/20 14:06:42;;;;;;;;;;;20.70;58.00;;;;;;4458259;32;20008;-74
2022/12/20 14:09:27;;;;;;;;;;;20.70;58.00;;;;;;4459437;32;20406;-73
2022/12/20 14:11:52;;;;;;;;;;;20.70;58.00;;;;;;4459093;32;20006;-73
2022/12/20 14:14:18;;;;;;;;;;;20.70;57.90;;;;;;4459245;32;20060;-72
2022/12/20 14:16:44;;;;;;;;;;;20.70;57.90;;;;;;4458668;32;20026;-72
2022/12/20 14:19:13;;;;;;;;;;;20.80;58.00;;;;;;4457279;32;20038;-73
2022/12/20 14:21:41;;;;;;;;;;;20.70;58.00;;;;;;4457874;32;20439;-72
2022/12/20 14:24:14;;;;;;;;;;;20.70;58.00;;;;;;4459230;32;19974;-73
2022/12/20 14:26:46;;;;;;;;;;;20.70;58.10;;;;;;4457935;32;20001;-72
2022/12/20 14:29:18;;;;;;;;;;;20.80;58.10;;;;;;4456921;32;20040;-72
2022/12/20 14:31:45;;;;;;;;;;;20.80;58.10;;;;;;4458965;32;19982;-72
2022/12/20 14:34:10;;;;;;;;;;;20.80;58.10;;;;;;4458305;32;20415;-72
2022/12/20 14:36:37;;;;;;;;;;;20.80;58.10;;;;;;4459618;32;20047;-72
2022/12/20 14:39:21;;;;;;;;;;;20.80;58.10;;;;;;4445562;32;20319;-72